フランクフルト の空港の天気 - METARとTAF

フランクフルト国際空港 ( EDDF / FRA ) - ドイツ フランクフルト・アム・マイン
飛行場実況気象(Metar)
観測時間02/28 01:20 CET (02/28 00:20 UTC)
風向・風速南 5m/s
視程10km以上
天気現象弱い雨
少しの雲 雲底高度 550m
全天の8割程度の雲 雲底高度 2560m
気温7℃
湿度87%
気圧996hPa
METAREDDF 280020Z 19010KT 9999 -RA FEW018 BKN084 07/05 Q0996 TEMPO RA
過去の天気等 Google飛行場航空写真 Wunderground天気予報

過去48時間のMETAR

飛行場予報(TAF)
発表時間: 2/28 00:00 CET (2/27 23:00 UTC)
予報対象時間: 28日1時 CET ~ 1日7時 CET
風向・風速南南西 6m/s
視程10km以上
少しの雲 雲底高度 610m
全天の4割程度の雲 雲底高度 910m
28日1時 CET ~ 28日6時 CET に一時的に
天気現象しゅう雨
全天の8割程度の塔状積雲 雲底高度 610m
28日5時 CET ~ 28日15時 CET に一時的に
風向・風速南南西 8m/s 瞬間風速 15m/s
28日15時 CET ~ 28日21時 CET に一時的に
天気現象しゅう雨
全天の8割程度の塔状積雲 雲底高度 460m
28日16時 CET ~ 28日20時 CET に 確率 30% で一時的に
風向・風速南西 8m/s 瞬間風速 13m/s
視程4,000m
天気現象しゅう雨
全天の8割程度の塔状積雲 雲底高度 300m
1日0時 CET ~ 1日7時 CET に 確率 40% で一時的に
風向・風速南西 8m/s 瞬間風速 13m/s
天気現象しゅう雨雪
全天の8割程度の積乱雲 雲底高度 460m
TAF EDDF 272300Z 2800/0106 21012KT 9999 FEW020 SCT030
TEMPO 2800/2805 SHRA BKN020TCU
TEMPO 2804/2814 20015G30KT
TEMPO 2814/2820 SHRA BKN015TCU
PROB30 TEMPO 2815/2819 22015G25KT 4000 SHRA BKN010TCU
PROB40 TEMPO 2823/0106 22015G25KT SHRASN BKN015CB